sensor_id;sensor_type;location;lat;lon;timestamp;pressure;altitude;pressure_sealevel;temperature;humidity
65832;BME280;52593;42.648;23.332;2022-07-17T00:01:44;94922.56;;;21.72;54.44
65832;BME280;52593;42.648;23.332;2022-07-17T00:04:10;94923.72;;;21.77;54.41
65832;BME280;52593;42.648;23.332;2022-07-17T00:06:35;94928.84;;;21.73;54.46
65832;BME280;52593;42.648;23.332;2022-07-17T00:09:01;94924.28;;;21.62;54.81
65832;BME280;52593;42.648;23.332;2022-07-17T00:11:26;94945.56;;;21.65;55.19
65832;BME280;52593;42.648;23.332;2022-07-17T00:13:52;94941.88;;;21.71;54.88
65832;BME280;52593;42.648;23.332;2022-07-17T00:16:18;94937.72;;;21.68;54.65
65832;BME280;52593;42.648;23.332;2022-07-17T00:18:43;94942.75;;;21.60;54.79
65832;BME280;52593;42.648;23.332;2022-07-17T00:21:09;94945.97;;;21.57;54.65
65832;BME280;52593;42.648;23.332;2022-07-17T00:23:34;94954.63;;;21.42;55.27
65832;BME280;52593;42.648;23.332;2022-07-17T00:26:00;94952.94;;;21.41;55.33
65832;BME280;52593;42.648;23.332;2022-07-17T00:28:25;94949.16;;;21.42;55.77
65832;BME280;52593;42.648;23.332;2022-07-17T00:30:51;94943.25;;;21.45;54.88
65832;BME280;52593;42.648;23.332;2022-07-17T00:33:16;94948.00;;;21.37;55.12
65832;BME280;52593;42.648;23.332;2022-07-17T00:35:41;94940.28;;;21.46;55.01
65832;BME280;52593;42.648;23.332;2022-07-17T00:38:07;94942.75;;;21.48;55.00
65832;BME280;52593;42.648;23.332;2022-07-17T00:40:33;94946.09;;;21.50;54.57
65832;BME280;52593;42.648;23.332;2022-07-17T00:42:58;94950.72;;;21.49;54.69
65832;BME280;52593;42.648;23.332;2022-07-17T00:45:24;94954.25;;;21.50;54.58
65832;BME280;52593;42.648;23.332;2022-07-17T00:50:20;94948.13;;;21.43;54.62
65832;BME280;52593;42.648;23.332;2022-07-17T00:52:46;94952.16;;;21.28;55.09
65832;BME280;52593;42.648;23.332;2022-07-17T00:55:12;94947.44;;;21.24;55.09
65832;BME280;52593;42.648;23.332;2022-07-17T00:57:40;94954.31;;;21.26;55.04
65832;BME280;52593;42.648;23.332;2022-07-17T01:00:06;94957.75;;;21.22;55.00
65832;BME280;52593;42.648;23.332;2022-07-17T01:02:35;94952.41;;;21.27;54.85
65832;BME280;52593;42.648;23.332;2022-07-17T01:05:00;94960.56;;;21.27;54.70
65832;BME280;52593;42.648;23.332;2022-07-17T01:07:26;94953.59;;;21.31;54.56
65832;BME280;52593;42.648;23.332;2022-07-17T01:09:51;94963.75;;;21.35;54.42
65832;BME280;52593;42.648;23.332;2022-07-17T01:12:16;94964.63;;;21.24;54.91
65832;BME280;52593;42.648;23.332;2022-07-17T01:14:42;94965.69;;;21.23;54.92
65832;BME280;52593;42.648;23.332;2022-07-17T01:17:10;94969.56;;;21.27;54.82
65832;BME280;52593;42.648;23.332;2022-07-17T01:19:36;94964.63;;;21.24;54.56
65832;BME280;52593;42.648;23.332;2022-07-17T01:22:02;94964.47;;;21.31;54.54
65832;BME280;52593;42.648;23.332;2022-07-17T01:24:27;94964.63;;;21.24;54.77
65832;BME280;52593;42.648;23.332;2022-07-17T01:26:53;94970.66;;;21.14;54.99
65832;BME280;52593;42.648;23.332;2022-07-17T01:29:18;94961.09;;;21.12;54.74
65832;BME280;52593;42.648;23.332;2022-07-17T01:31:44;94962.38;;;21.21;54.31
65832;BME280;52593;42.648;23.332;2022-07-17T01:34:11;94961.41;;;21.27;54.63
65832;BME280;52593;42.648;23.332;2022-07-17T01:36:41;94963.41;;;21.32;54.48
65832;BME280;52593;42.648;23.332;2022-07-17T01:39:07;94958.69;;;21.27;53.74
65832;BME280;52593;42.648;23.332;2022-07-17T01:41:32;94960.81;;;21.25;54.17
65832;BME280;52593;42.648;23.332;2022-07-17T01:43:58;94960.81;;;21.25;54.04
65832;BME280;52593;42.648;23.332;2022-07-17T01:46:25;94955.28;;;21.20;54.07
65832;BME280;52593;42.648;23.332;2022-07-17T01:48:50;94970.88;;;21.25;53.58
65832;BME280;52593;42.648;23.332;2022-07-17T01:51:16;94958.81;;;21.20;54.33
65832;BME280;52593;42.648;23.332;2022-07-17T01:53:41;94960.00;;;21.25;53.71
65832;BME280;52593;42.648;23.332;2022-07-17T01:56:07;94957.28;;;21.25;53.81
65832;BME280;52593;42.648;23.332;2022-07-17T01:58:33;94956.53;;;21.29;53.46
65832;BME280;52593;42.648;23.332;2022-07-17T02:00:59;94968.41;;;21.23;53.86
65832;BME280;52593;42.648;23.332;2022-07-17T02:03:24;94968.41;;;21.23;54.43
65832;BME280;52593;42.648;23.332;2022-07-17T02:05:50;94968.88;;;21.20;54.56
65832;BME280;52593;42.648;23.332;2022-07-17T02:08:15;94968.06;;;21.08;54.18
65832;BME280;52593;42.648;23.332;2022-07-17T02:10:41;94971.38;;;21.10;54.43
65832;BME280;52593;42.648;23.332;2022-07-17T02:13:06;94967.00;;;21.09;54.39
65832;BME280;52593;42.648;23.332;2022-07-17T02:15:32;94967.00;;;21.09;53.90
65832;BME280;52593;42.648;23.332;2022-07-17T02:17:57;94967.44;;;21.17;53.33
65832;BME280;52593;42.648;23.332;2022-07-17T02:20:23;94970.31;;;21.11;53.46
65832;BME280;52593;42.648;23.332;2022-07-17T02:22:49;94967.25;;;21.07;53.33
65832;BME280;52593;42.648;23.332;2022-07-17T02:25:15;94969.97;;;20.95;53.47
65832;BME280;52593;42.648;23.332;2022-07-17T02:27:41;94979.44;;;21.05;53.45
65832;BME280;52593;42.648;23.332;2022-07-17T02:30:12;94965.81;;;21.05;53.27
65832;BME280;52593;42.648;23.332;2022-07-17T02:32:38;94967.50;;;20.94;53.87
65832;BME280;52593;42.648;23.332;2022-07-17T02:35:05;94961.34;;;20.98;53.78
65832;BME280;52593;42.648;23.332;2022-07-17T02:37:31;94970.47;;;20.92;53.82
65832;BME280;52593;42.648;23.332;2022-07-17T02:39:56;94974.09;;;20.98;54.33
65832;BME280;52593;42.648;23.332;2022-07-17T02:42:25;94958.50;;;20.93;54.20
65832;BME280;52593;42.648;23.332;2022-07-17T02:44:51;94964.88;;;20.87;54.22
65832;BME280;52593;42.648;23.332;2022-07-17T02:49:51;94979.22;;;20.71;54.71
65832;BME280;52593;42.648;23.332;2022-07-17T02:52:17;94977.91;;;20.73;54.55
65832;BME280;52593;42.648;23.332;2022-07-17T02:54:42;94986.19;;;20.66;55.20
65832;BME280;52593;42.648;23.332;2022-07-17T02:57:08;94979.81;;;20.73;55.18
65832;BME280;52593;42.648;23.332;2022-07-17T02:59:33;94989.97;;;20.65;55.22
65832;BME280;52593;42.648;23.332;2022-07-17T03:01:59;94992.19;;;20.57;55.49
65832;BME280;52593;42.648;23.332;2022-07-17T03:04:25;94989.56;;;20.50;55.61
65832;BME280;52593;42.648;23.332;2022-07-17T03:06:50;94992.41;;;20.43;55.68
65832;BME280;52593;42.648;23.332;2022-07-17T03:09:16;94990.97;;;20.41;55.86
65832;BME280;52593;42.648;23.332;2022-07-17T03:11:41;95003.97;;;20.39;55.98
65832;BME280;52593;42.648;23.332;2022-07-17T03:14:06;94998.66;;;20.44;55.85
65832;BME280;52593;42.648;23.332;2022-07-17T03:16:32;95002.03;;;20.27;56.11
65832;BME280;52593;42.648;23.332;2022-07-17T03:18:57;95014.47;;;20.23;56.71
65832;BME280;52593;42.648;23.332;2022-07-17T03:21:23;95004.53;;;20.17;57.24
65832;BME280;52593;42.648;23.332;2022-07-17T03:23:48;95008.78;;;20.25;56.57
65832;BME280;52593;42.648;23.332;2022-07-17T03:26:13;95010.91;;;20.23;56.34
65832;BME280;52593;42.648;23.332;2022-07-17T03:28:39;95014.94;;;20.20;56.72
65832;BME280;52593;42.648;23.332;2022-07-17T03:31:04;95008.34;;;20.28;56.07
65832;BME280;52593;42.648;23.332;2022-07-17T03:33:29;95016.09;;;20.24;55.87
65832;BME280;52593;42.648;23.332;2022-07-17T03:35:55;95019.44;;;20.26;56.06
65832;BME280;52593;42.648;23.332;2022-07-17T03:38:21;95017.88;;;20.19;55.42
65832;BME280;52593;42.648;23.332;2022-07-17T03:40:47;95022.22;;;20.20;55.61
65832;BME280;52593;42.648;23.332;2022-07-17T03:43:12;95028.97;;;20.29;54.66
65832;BME280;52593;42.648;23.332;2022-07-17T03:45:39;95031.84;;;20.34;54.29
65832;BME280;52593;42.648;23.332;2022-07-17T03:48:04;95034.47;;;20.41;53.46
65832;BME280;52593;42.648;23.332;2022-07-17T03:50:30;95029.41;;;20.44;52.40
65832;BME280;52593;42.648;23.332;2022-07-17T03:52:55;95029.06;;;20.53;52.32
65832;BME280;52593;42.648;23.332;2022-07-17T03:55:21;95027.84;;;20.48;52.17
65832;BME280;52593;42.648;23.332;2022-07-17T03:57:46;95035.91;;;20.55;50.58
65832;BME280;52593;42.648;23.332;2022-07-17T04:00:12;95034.38;;;20.59;51.06
65832;BME280;52593;42.648;23.332;2022-07-17T04:02:37;95046.44;;;20.63;50.88
65832;BME280;52593;42.648;23.332;2022-07-17T04:05:03;95049.69;;;20.72;51.86
65832;BME280;52593;42.648;23.332;2022-07-17T04:07:28;95052.03;;;20.69;51.46
65832;BME280;52593;42.648;23.332;2022-07-17T04:09:58;95052.03;;;20.80;51.05
65832;BME280;52593;42.648;23.332;2022-07-17T04:12:25;95054.88;;;20.85;52.16
65832;BME280;52593;42.648;23.332;2022-07-17T04:14:50;95059.97;;;20.82;52.62
65832;BME280;52593;42.648;23.332;2022-07-17T04:17:16;95067.06;;;20.83;52.60
65832;BME280;52593;42.648;23.332;2022-07-17T04:19:42;95065.28;;;21.00;52.59
65832;BME280;52593;42.648;23.332;2022-07-17T04:22:07;95064.56;;;20.93;51.80
65832;BME280;52593;42.648;23.332;2022-07-17T04:24:33;95069.31;;;20.86;52.88
65832;BME280;52593;42.648;23.332;2022-07-17T04:26:58;95079.50;;;20.91;53.19
65832;BME280;52593;42.648;23.332;2022-07-17T04:29:23;95074.16;;;20.84;52.23
65832;BME280;52593;42.648;23.332;2022-07-17T04:31:49;95064.94;;;20.97;52.32
65832;BME280;52593;42.648;23.332;2022-07-17T04:34:14;95071.31;;;21.02;53.44
65832;BME280;52593;42.648;23.332;2022-07-17T04:36:40;95077.00;;;21.13;52.49
65832;BME280;52593;42.648;23.332;2022-07-17T04:39:05;95074.28;;;21.25;49.85
65832;BME280;52593;42.648;23.332;2022-07-17T04:41:31;95082.31;;;21.31;49.72
65832;BME280;52593;42.648;23.332;2022-07-17T04:43:56;95074.91;;;21.50;47.36
65832;BME280;52593;42.648;23.332;2022-07-17T04:46:21;95082.19;;;21.62;47.48
65832;BME280;52593;42.648;23.332;2022-07-17T04:48:47;95078.84;;;21.71;46.38
65832;BME280;52593;42.648;23.332;2022-07-17T04:51:12;95079.06;;;21.82;45.51
65832;BME280;52593;42.648;23.332;2022-07-17T04:53:38;95080.84;;;21.88;47.70
65832;BME280;52593;42.648;23.332;2022-07-17T04:56:03;95084.28;;;21.83;47.71
65832;BME280;52593;42.648;23.332;2022-07-17T04:58:29;95084.53;;;21.82;45.58
65832;BME280;52593;42.648;23.332;2022-07-17T05:00:54;95093.09;;;21.62;44.19
65832;BME280;52593;42.648;23.332;2022-07-17T05:03:20;95100.22;;;21.51;42.46
65832;BME280;52593;42.648;23.332;2022-07-17T05:05:45;95099.47;;;21.44;43.15
65832;BME280;52593;42.648;23.332;2022-07-17T05:08:11;95100.56;;;21.54;43.69
65832;BME280;52593;42.648;23.332;2022-07-17T05:10:36;95113.94;;;21.44;44.08
65832;BME280;52593;42.648;23.332;2022-07-17T05:13:01;95114.41;;;21.53;44.30
65832;BME280;52593;42.648;23.332;2022-07-17T05:15:27;95115.34;;;21.47;44.48
65832;BME280;52593;42.648;23.332;2022-07-17T05:17:53;95113.81;;;21.51;50.29
65832;BME280;52593;42.648;23.332;2022-07-17T05:20:18;95104.69;;;21.69;45.17
65832;BME280;52593;42.648;23.332;2022-07-17T05:22:43;95112.47;;;21.77;43.74
65832;BME280;52593;42.648;23.332;2022-07-17T05:25:09;95108.22;;;21.81;43.17
65832;BME280;52593;42.648;23.332;2022-07-17T05:27:34;95107.75;;;21.84;43.52
65832;BME280;52593;42.648;23.332;2022-07-17T05:30:00;95109.34;;;21.97;43.36
65832;BME280;52593;42.648;23.332;2022-07-17T05:32:25;95113.84;;;22.03;46.27
65832;BME280;52593;42.648;23.332;2022-07-17T05:34:50;95103.88;;;22.09;42.00
65832;BME280;52593;42.648;23.332;2022-07-17T05:37:16;95109.09;;;22.11;42.60
65832;BME280;52593;42.648;23.332;2022-07-17T05:39:41;95116.19;;;22.12;42.36
65832;BME280;52593;42.648;23.332;2022-07-17T05:42:07;95116.19;;;22.12;41.71
65832;BME280;52593;42.648;23.332;2022-07-17T05:44:32;95107.41;;;22.09;42.24
65832;BME280;52593;42.648;23.332;2022-07-17T05:46:58;95115.00;;;22.07;42.41
65832;BME280;52593;42.648;23.332;2022-07-17T05:49:23;95110.53;;;22.01;44.99
65832;BME280;52593;42.648;23.332;2022-07-17T05:51:49;95113.09;;;22.08;43.15
65832;BME280;52593;42.648;23.332;2022-07-17T05:54:14;95113.91;;;22.20;41.71
65832;BME280;52593;42.648;23.332;2022-07-17T05:56:39;95111.16;;;22.20;40.76
65832;BME280;52593;42.648;23.332;2022-07-17T05:59:05;95114.19;;;22.07;41.59
65832;BME280;52593;42.648;23.332;2022-07-17T06:01:30;95123.66;;;22.16;41.91
65832;BME280;52593;42.648;23.332;2022-07-17T06:03:56;95120.31;;;22.14;40.84
65832;BME280;52593;42.648;23.332;2022-07-17T06:06:21;95124.16;;;22.01;40.67
65832;BME280;52593;42.648;23.332;2022-07-17T06:08:47;95125.50;;;21.87;41.18
65832;BME280;52593;42.648;23.332;2022-07-17T06:11:12;95121.94;;;21.86;42.33
65832;BME280;52593;42.648;23.332;2022-07-17T06:13:38;95130.47;;;21.90;42.31
65832;BME280;52593;42.648;23.332;2022-07-17T06:16:04;95127.69;;;22.02;41.96
65832;BME280;52593;42.648;23.332;2022-07-17T06:18:29;95131.38;;;22.07;43.14
65832;BME280;52593;42.648;23.332;2022-07-17T06:20:54;95127.03;;;22.23;41.91
65832;BME280;52593;42.648;23.332;2022-07-17T06:23:20;95135.47;;;22.22;41.83
65832;BME280;52593;42.648;23.332;2022-07-17T06:25:45;95131.44;;;22.24;41.65
65832;BME280;52593;42.648;23.332;2022-07-17T06:28:11;95127.75;;;22.19;42.55
65832;BME280;52593;42.648;23.332;2022-07-17T06:30:36;95133.59;;;22.22;42.46
65832;BME280;52593;42.648;23.332;2022-07-17T06:33:02;95134.56;;;22.16;41.04
65832;BME280;52593;42.648;23.332;2022-07-17T06:35:28;95131.91;;;22.21;41.52
65832;BME280;52593;42.648;23.332;2022-07-17T06:37:56;95128.84;;;22.18;41.62
65832;BME280;52593;42.648;23.332;2022-07-17T06:40:22;95130.63;;;22.24;41.47
65832;BME280;52593;42.648;23.332;2022-07-17T06:42:48;95134.63;;;22.33;41.55
65832;BME280;52593;42.648;23.332;2022-07-17T06:45:13;95129.19;;;22.33;42.18
65832;BME280;52593;42.648;23.332;2022-07-17T06:47:39;95123.56;;;22.40;42.32
65832;BME280;52593;42.648;23.332;2022-07-17T06:50:05;95128.66;;;22.48;42.59
65832;BME280;52593;42.648;23.332;2022-07-17T06:52:30;95130.53;;;22.48;41.75
65832;BME280;52593;42.648;23.332;2022-07-17T06:54:56;95132.78;;;22.51;41.05
65832;BME280;52593;42.648;23.332;2022-07-17T06:57:21;95139.81;;;22.47;41.00
65832;BME280;52593;42.648;23.332;2022-07-17T06:59:47;95130.91;;;22.51;41.58
65832;BME280;52593;42.648;23.332;2022-07-17T07:02:12;95137.16;;;22.52;41.27
65832;BME280;52593;42.648;23.332;2022-07-17T07:04:37;95136.03;;;22.65;41.45
65832;BME280;52593;42.648;23.332;2022-07-17T07:07:03;95130.94;;;22.68;40.92
65832;BME280;52593;42.648;23.332;2022-07-17T07:09:28;95143.63;;;22.62;41.78
65832;BME280;52593;42.648;23.332;2022-07-17T07:11:54;95142.91;;;22.67;41.27
65832;BME280;52593;42.648;23.332;2022-07-17T07:14:19;95146.13;;;22.64;41.05
65832;BME280;52593;42.648;23.332;2022-07-17T07:16:45;95143.06;;;22.60;41.55
65832;BME280;52593;42.648;23.332;2022-07-17T07:19:10;95146.94;;;22.65;42.23
65832;BME280;52593;42.648;23.332;2022-07-17T07:21:35;95144.56;;;22.68;40.46
65832;BME280;52593;42.648;23.332;2022-07-17T07:24:01;95145.69;;;22.55;41.57
65832;BME280;52593;42.648;23.332;2022-07-17T07:26:26;95141.66;;;22.58;41.62
65832;BME280;52593;42.648;23.332;2022-07-17T07:28:52;95141.47;;;22.65;41.24
65832;BME280;52593;42.648;23.332;2022-07-17T07:31:18;95148.44;;;22.72;41.73
65832;BME280;52593;42.648;23.332;2022-07-17T07:33:44;95151.19;;;22.89;41.29
65832;BME280;52593;42.648;23.332;2022-07-17T07:36:10;95154.75;;;22.90;41.13
65832;BME280;52593;42.648;23.332;2022-07-17T07:38:35;95143.34;;;22.93;40.75
65832;BME280;52593;42.648;23.332;2022-07-17T07:41:01;95132.84;;;23.02;41.03
65832;BME280;52593;42.648;23.332;2022-07-17T07:43:26;95132.56;;;23.15;40.75
65832;BME280;52593;42.648;23.332;2022-07-17T07:45:52;95150.59;;;23.33;40.59
65832;BME280;52593;42.648;23.332;2022-07-17T07:48:17;95145.84;;;23.45;40.12
65832;BME280;52593;42.648;23.332;2022-07-17T07:50:43;95136.25;;;23.43;39.58
65832;BME280;52593;42.648;23.332;2022-07-17T07:53:08;95141.56;;;23.49;39.59
65832;BME280;52593;42.648;23.332;2022-07-17T07:55:33;95135.75;;;23.46;40.61
65832;BME280;52593;42.648;23.332;2022-07-17T07:58:07;95140.16;;;23.47;39.83
65832;BME280;52593;42.648;23.332;2022-07-17T08:00:32;95139.56;;;23.62;40.39
65832;BME280;52593;42.648;23.332;2022-07-17T08:02:58;95136.78;;;23.79;38.29
65832;BME280;52593;42.648;23.332;2022-07-17T08:05:24;95148.53;;;23.79;37.15
65832;BME280;52593;42.648;23.332;2022-07-17T08:07:49;95139.22;;;23.75;38.20
65832;BME280;52593;42.648;23.332;2022-07-17T08:10:14;95136.22;;;23.77;38.31
65832;BME280;52593;42.648;23.332;2022-07-17T08:12:40;95133.97;;;23.91;38.26
65832;BME280;52593;42.648;23.332;2022-07-17T08:15:06;95133.91;;;24.08;37.39
65832;BME280;52593;42.648;23.332;2022-07-17T08:17:31;95138.28;;;24.09;37.46
65832;BME280;52593;42.648;23.332;2022-07-17T08:19:56;95139.69;;;24.11;37.28
65832;BME280;52593;42.648;23.332;2022-07-17T08:22:22;95138.53;;;24.07;38.12
65832;BME280;52593;42.648;23.332;2022-07-17T08:24:47;95147.88;;;24.11;36.56
65832;BME280;52593;42.648;23.332;2022-07-17T08:27:13;95144.41;;;24.16;36.87
65832;BME280;52593;42.648;23.332;2022-07-17T08:29:38;95132.69;;;24.20;37.57
65832;BME280;52593;42.648;23.332;2022-07-17T08:32:04;95141.84;;;24.31;36.83
65832;BME280;52593;42.648;23.332;2022-07-17T08:34:29;95140.06;;;24.42;36.27
65832;BME280;52593;42.648;23.332;2022-07-17T08:36:55;95137.13;;;24.49;37.00
65832;BME280;52593;42.648;23.332;2022-07-17T08:39:20;95140.25;;;24.35;36.35
65832;BME280;52593;42.648;23.332;2022-07-17T08:41:46;95133.38;;;24.33;36.59
65832;BME280;52593;42.648;23.332;2022-07-17T08:44:11;95138.84;;;24.33;36.93
65832;BME280;52593;42.648;23.332;2022-07-17T08:46:38;95138.84;;;24.33;35.55
65832;BME280;52593;42.648;23.332;2022-07-17T08:49:06;95140.13;;;24.47;36.45
65832;BME280;52593;42.648;23.332;2022-07-17T08:51:33;95145.56;;;24.69;35.94
65832;BME280;52593;42.648;23.332;2022-07-17T08:54:00;95134.56;;;24.91;34.99
65832;BME280;52593;42.648;23.332;2022-07-17T08:56:26;95126.50;;;25.07;35.92
65832;BME280;52593;42.648;23.332;2022-07-17T08:58:52;95126.31;;;25.19;34.84
65832;BME280;52593;42.648;23.332;2022-07-17T09:01:19;95130.47;;;25.26;35.23
65832;BME280;52593;42.648;23.332;2022-07-17T09:03:58;95131.00;;;25.23;35.40
65832;BME280;52593;42.648;23.332;2022-07-17T09:06:25;95122.91;;;25.34;34.46
65832;BME280;52593;42.648;23.332;2022-07-17T09:09:08;95123.00;;;25.44;35.28
65832;BME280;52593;42.648;23.332;2022-07-17T09:11:51;95121.81;;;25.35;32.38
65832;BME280;52593;42.648;23.332;2022-07-17T09:14:18;95123.91;;;25.27;33.22
65832;BME280;52593;42.648;23.332;2022-07-17T09:17:04;95118.44;;;25.27;33.62
65832;BME280;52593;42.648;23.332;2022-07-17T09:19:39;95127.88;;;25.42;34.02
65832;BME280;52593;42.648;23.332;2022-07-17T09:22:24;95112.03;;;25.44;33.30
65832;BME280;52593;42.648;23.332;2022-07-17T09:30:09;95116.78;;;26.07;35.54
65832;BME280;52593;42.648;23.332;2022-07-17T09:32:40;95126.44;;;26.14;34.35
65832;BME280;52593;42.648;23.332;2022-07-17T09:35:07;95122.03;;;26.13;34.97
65832;BME280;52593;42.648;23.332;2022-07-17T09:37:35;95123.44;;;26.21;35.26
65832;BME280;52593;42.648;23.332;2022-07-17T09:40:02;95116.38;;;26.41;34.19
65832;BME280;52593;42.648;23.332;2022-07-17T09:42:33;95124.91;;;26.60;34.86
65832;BME280;52593;42.648;23.332;2022-07-17T09:45:09;95116.47;;;26.72;33.08
65832;BME280;52593;42.648;23.332;2022-07-17T09:47:38;95126.25;;;26.47;32.55
65832;BME280;52593;42.648;23.332;2022-07-17T09:50:05;95124.59;;;26.46;33.33
65832;BME280;52593;42.648;23.332;2022-07-17T09:52:35;95116.69;;;26.55;31.87
65832;BME280;52593;42.648;23.332;2022-07-17T09:55:03;95123.88;;;26.76;33.47
65832;BME280;52593;42.648;23.332;2022-07-17T09:57:31;95117.84;;;26.74;31.04
65832;BME280;52593;42.648;23.332;2022-07-17T10:00:00;95119.47;;;26.75;31.43
65832;BME280;52593;42.648;23.332;2022-07-17T10:02:27;95120.53;;;26.59;31.41
65832;BME280;52593;42.648;23.332;2022-07-17T10:04:53;95120.53;;;26.64;31.99
65832;BME280;52593;42.648;23.332;2022-07-17T10:07:19;95114.53;;;26.72;31.73
65832;BME280;52593;42.648;23.332;2022-07-17T10:09:45;95117.03;;;26.89;31.08
65832;BME280;52593;42.648;23.332;2022-07-17T10:12:11;95123.63;;;26.73;31.64
65832;BME280;52593;42.648;23.332;2022-07-17T10:14:38;95117.56;;;26.70;31.58
65832;BME280;52593;42.648;23.332;2022-07-17T10:17:10;95118.13;;;26.78;31.79
65832;BME280;52593;42.648;23.332;2022-07-17T10:19:52;95111.81;;;26.87;30.54
65832;BME280;52593;42.648;23.332;2022-07-17T10:22:21;95115.13;;;26.95;31.56
65832;BME280;52593;42.648;23.332;2022-07-17T10:24:56;95101.69;;;27.19;31.51
65832;BME280;52593;42.648;23.332;2022-07-17T10:27:24;95107.72;;;27.16;31.82
65832;BME280;52593;42.648;23.332;2022-07-17T10:32:32;95104.16;;;27.41;31.72
65832;BME280;52593;42.648;23.332;2022-07-17T10:35:10;95101.09;;;27.58;31.27
65832;BME280;52593;42.648;23.332;2022-07-17T10:47:49;95098.66;;;27.26;30.77
65832;BME280;52593;42.648;23.332;2022-07-17T10:50:17;95098.94;;;27.29;30.40
65832;BME280;52593;42.648;23.332;2022-07-17T10:52:43;95096.22;;;27.34;29.97
65832;BME280;52593;42.648;23.332;2022-07-17T10:55:20;95088.44;;;27.77;30.89
65832;BME280;52593;42.648;23.332;2022-07-17T10:57:47;95089.28;;;27.78;29.73
65832;BME280;52593;42.648;23.332;2022-07-17T11:00:14;95087.63;;;27.77;30.14
65832;BME280;52593;42.648;23.332;2022-07-17T11:02:41;95087.31;;;27.84;30.26
65832;BME280;52593;42.648;23.332;2022-07-17T11:05:07;95081.25;;;27.92;29.45
65832;BME280;52593;42.648;23.332;2022-07-17T11:07:33;95082.41;;;27.65;30.16
65832;BME280;52593;42.648;23.332;2022-07-17T11:09:59;95081.88;;;27.58;30.56
65832;BME280;52593;42.648;23.332;2022-07-17T11:12:34;95076.13;;;27.49;30.80
65832;BME280;52593;42.648;23.332;2022-07-17T11:15:04;95074.19;;;27.50;30.45
65832;BME280;52593;42.648;23.332;2022-07-17T11:17:30;95069.97;;;27.88;29.89
65832;BME280;52593;42.648;23.332;2022-07-17T11:19:58;95071.09;;;27.82;30.56
65832;BME280;52593;42.648;23.332;2022-07-17T11:22:24;95067.03;;;27.59;29.83
65832;BME280;52593;42.648;23.332;2022-07-17T11:24:50;95069.47;;;27.76;30.60
65832;BME280;52593;42.648;23.332;2022-07-17T11:29:46;95067.22;;;27.93;30.65
65832;BME280;52593;42.648;23.332;2022-07-17T11:32:12;95061.66;;;28.14;29.76
65832;BME280;52593;42.648;23.332;2022-07-17T11:34:38;95058.53;;;28.31;30.04
65832;BME280;52593;42.648;23.332;2022-07-17T11:37:06;95055.81;;;28.76;30.07
65832;BME280;52593;42.648;23.332;2022-07-17T11:39:45;95059.50;;;29.35;28.66
65832;BME280;52593;42.648;23.332;2022-07-17T11:42:16;95051.31;;;29.83;28.27
65832;BME280;52593;42.648;23.332;2022-07-17T11:44:42;95057.38;;;30.04;28.71
65832;BME280;52593;42.648;23.332;2022-07-17T11:47:09;95048.66;;;29.09;27.66
65832;BME280;52593;42.648;23.332;2022-07-17T11:49:37;95044.03;;;28.65;28.85
65832;BME280;52593;42.648;23.332;2022-07-17T11:52:15;95052.88;;;28.62;29.06
65832;BME280;52593;42.648;23.332;2022-07-17T11:57:11;95047.56;;;29.10;29.08
65832;BME280;52593;42.648;23.332;2022-07-17T11:59:37;95039.00;;;29.12;28.36
65832;BME280;52593;42.648;23.332;2022-07-17T12:02:13;95032.66;;;29.46;28.77
65832;BME280;52593;42.648;23.332;2022-07-17T12:04:52;95028.78;;;29.47;28.44
65832;BME280;52593;42.648;23.332;2022-07-17T12:07:18;95025.31;;;29.36;28.60
65832;BME280;52593;42.648;23.332;2022-07-17T12:09:44;95028.84;;;29.66;28.53
65832;BME280;52593;42.648;23.332;2022-07-17T12:12:30;95039.97;;;29.85;28.10
65832;BME280;52593;42.648;23.332;2022-07-17T12:14:57;95037.38;;;29.94;27.59
65832;BME280;52593;42.648;23.332;2022-07-17T12:17:24;95033.81;;;29.40;29.14
65832;BME280;52593;42.648;23.332;2022-07-17T12:19:53;95025.31;;;29.60;28.98
65832;BME280;52593;42.648;23.332;2022-07-17T12:22:18;95033.28;;;29.38;28.42
65832;BME280;52593;42.648;23.332;2022-07-17T12:24:45;95028.59;;;29.38;29.04
65832;BME280;52593;42.648;23.332;2022-07-17T12:27:15;95024.16;;;29.42;28.56
65832;BME280;52593;42.648;23.332;2022-07-17T12:29:42;95027.94;;;29.46;28.76
65832;BME280;52593;42.648;23.332;2022-07-17T12:32:15;95021.56;;;29.51;29.37
65832;BME280;52593;42.648;23.332;2022-07-17T12:34:43;95033.28;;;29.03;29.10
65832;BME280;52593;42.648;23.332;2022-07-17T12:37:17;95033.94;;;28.90;29.62
65832;BME280;52593;42.648;23.332;2022-07-17T12:39:44;95028.72;;;28.88;29.06
65832;BME280;52593;42.648;23.332;2022-07-17T12:42:09;95020.16;;;28.95;29.06
65832;BME280;52593;42.648;23.332;2022-07-17T12:44:36;95023.19;;;28.93;29.67
65832;BME280;52593;42.648;23.332;2022-07-17T12:47:01;95030.94;;;28.46;31.11
65832;BME280;52593;42.648;23.332;2022-07-17T12:49:27;95022.75;;;28.36;30.82
65832;BME280;52593;42.648;23.332;2022-07-17T12:51:53;95029.88;;;28.37;31.13
65832;BME280;52593;42.648;23.332;2022-07-17T12:54:19;95026.00;;;28.43;31.21
65832;BME280;52593;42.648;23.332;2022-07-17T12:56:44;95030.56;;;28.58;31.37
65832;BME280;52593;42.648;23.332;2022-07-17T12:59:09;95022.31;;;28.63;32.19
65832;BME280;52593;42.648;23.332;2022-07-17T13:01:35;95018.13;;;28.71;31.93
65832;BME280;52593;42.648;23.332;2022-07-17T13:04:01;95020.09;;;28.66;32.27
65832;BME280;52593;42.648;23.332;2022-07-17T13:06:26;95014.78;;;28.79;31.71
65832;BME280;52593;42.648;23.332;2022-07-17T13:08:52;95021.03;;;28.45;32.83
65832;BME280;52593;42.648;23.332;2022-07-17T13:11:18;95012.31;;;28.33;33.74
65832;BME280;52593;42.648;23.332;2022-07-17T13:13:43;95010.31;;;28.44;32.64
65832;BME280;52593;42.648;23.332;2022-07-17T13:16:09;95006.66;;;28.54;32.83